createdAt,value
2019-02-19T00:03:23.089Z,13.76
2019-02-19T00:08:29.068Z,14.00
2019-02-19T00:13:35.072Z,15.46
2019-02-19T00:18:41.096Z,6.90
2019-02-19T00:23:47.123Z,6.68
2019-02-19T00:28:53.133Z,7.01
2019-02-19T00:33:59.191Z,7.11
2019-02-19T00:39:05.177Z,6.77
2019-02-19T00:44:11.196Z,6.66
2019-02-19T00:49:17.248Z,13.64
2019-02-19T00:54:23.192Z,6.87
2019-02-19T00:59:29.214Z,7.00
2019-02-19T01:04:35.227Z,6.60
2019-02-19T01:09:41.226Z,6.85
2019-02-19T01:14:47.303Z,6.73
2019-02-19T01:19:53.309Z,6.34
2019-02-19T01:24:59.306Z,6.88
2019-02-19T01:30:05.319Z,7.36
2019-02-19T01:35:11.318Z,11.10
2019-02-19T01:40:17.303Z,13.14
2019-02-19T01:45:23.452Z,6.22
2019-02-19T01:50:30.402Z,11.73
2019-02-19T01:55:36.423Z,5.96
2019-02-19T02:00:42.469Z,12.11
2019-02-19T02:05:48.564Z,5.84
2019-02-19T02:10:54.581Z,11.11
2019-02-19T02:16:00.599Z,6.66
2019-02-19T02:21:06.670Z,11.59
2019-02-19T02:26:12.678Z,7.04
2019-02-19T02:31:18.747Z,6.68
2019-02-19T02:36:24.783Z,6.41
2019-02-19T02:41:30.884Z,6.04
2019-02-19T02:46:36.933Z,11.47
2019-02-19T02:51:42.973Z,6.40
2019-02-19T02:56:49.024Z,6.73
2019-02-19T03:01:55.042Z,6.65
2019-02-19T03:07:01.017Z,6.99
2019-02-19T03:12:07.012Z,6.62
2019-02-19T03:17:12.996Z,12.26
2019-02-19T03:22:19.019Z,12.10
2019-02-19T03:27:25.005Z,6.11
2019-02-19T03:32:31.006Z,6.69
2019-02-19T03:37:36.969Z,10.54
2019-02-19T03:42:43.000Z,6.31
2019-02-19T03:47:49.010Z,6.78
2019-02-19T03:52:54.998Z,6.09
2019-02-19T03:58:01.022Z,12.45
2019-02-19T04:03:07.152Z,5.93
2019-02-19T04:08:13.156Z,12.44
2019-02-19T04:13:19.144Z,5.55
2019-02-19T04:18:25.129Z,5.25
2019-02-19T04:23:31.177Z,6.69
2019-02-19T04:28:37.195Z,6.12
2019-02-19T04:33:43.191Z,10.87
2019-02-19T04:38:49.215Z,11.11
2019-02-19T04:43:55.230Z,5.73
2019-02-19T04:49:01.204Z,10.26
2019-02-19T04:54:07.238Z,14.69
2019-02-19T04:59:13.260Z,6.09
2019-02-19T05:04:19.258Z,11.65
2019-02-19T05:09:25.247Z,7.25
2019-02-19T05:14:31.314Z,6.96
2019-02-19T05:19:37.323Z,7.44
2019-02-19T05:24:43.447Z,7.08
2019-02-19T05:29:49.474Z,7.26
2019-02-19T05:34:55.482Z,6.91
2019-02-19T05:40:01.545Z,9.06
2019-02-19T05:45:07.597Z,11.48
2019-02-19T05:50:13.645Z,26.87
2019-02-19T05:55:20.163Z,15.52
2019-02-19T06:00:27.245Z,16.45
2019-02-19T06:05:32.668Z,13.05
2019-02-19T06:10:38.972Z,13.43
2019-02-19T06:15:44.969Z,8.19
2019-02-19T06:20:51.176Z,20.12
2019-02-19T06:25:57.238Z,11.29
2019-02-19T06:31:03.224Z,10.33
2019-02-19T06:36:09.231Z,12.40
2019-02-19T06:41:15.343Z,11.95
2019-02-19T06:46:21.393Z,21.10
2019-02-19T06:51:27.532Z,13.77
2019-02-19T06:56:33.705Z,12.88
2019-02-19T07:01:39.713Z,20.28
2019-02-19T07:06:45.844Z,16.92
2019-02-19T07:11:51.892Z,19.34
2019-02-19T07:16:58.003Z,32.19
2019-02-19T07:22:04.035Z,14.61
2019-02-19T07:27:10.105Z,30.45
2019-02-19T07:32:16.242Z,34.07
2019-02-19T07:37:22.268Z,20.39
2019-02-19T07:42:28.244Z,39.41
2019-02-19T07:47:34.300Z,27.03
2019-02-19T07:57:40.588Z,30.03
2019-02-19T08:02:46.655Z,19.12
2019-02-19T08:07:52.927Z,15.78
2019-02-19T08:12:59.127Z,17.63
2019-02-19T08:18:05.110Z,21.05
2019-02-19T08:23:11.122Z,15.83
2019-02-19T08:28:17.240Z,14.86
2019-02-19T08:33:23.299Z,17.45
2019-02-19T08:38:29.335Z,19.17
2019-02-19T08:43:35.320Z,20.07
2019-02-19T08:48:41.389Z,14.10
2019-02-19T08:53:47.385Z,17.83
2019-02-19T08:58:53.402Z,17.40
2019-02-19T09:03:59.425Z,29.96
2019-02-19T09:09:05.440Z,16.29
2019-02-19T09:14:11.452Z,18.45
2019-02-19T09:19:17.471Z,17.62
2019-02-19T09:24:23.454Z,17.02
2019-02-19T09:29:29.555Z,15.93
2019-02-19T09:34:35.673Z,16.28
2019-02-19T09:39:41.674Z,13.41
2019-02-19T09:44:47.655Z,14.82
2019-02-19T09:49:53.673Z,24.67
2019-02-19T09:54:59.688Z,16.34
2019-02-19T10:00:05.890Z,16.37
2019-02-19T10:05:11.917Z,15.17
2019-02-19T10:10:17.948Z,13.82
2019-02-19T10:15:24.101Z,11.94
2019-02-19T10:20:30.117Z,21.39
2019-02-19T10:25:36.152Z,11.36
2019-02-19T10:30:42.157Z,23.13
2019-02-19T10:35:48.281Z,10.92
2019-02-19T10:40:54.282Z,7.76
2019-02-19T10:46:00.315Z,7.33
2019-02-19T10:51:06.571Z,8.35
2019-02-19T10:56:12.618Z,8.09
2019-02-19T11:01:18.682Z,9.30
2019-02-19T11:06:24.691Z,8.27
2019-02-19T11:11:30.714Z,7.47
2019-02-19T11:16:36.728Z,14.40
2019-02-19T11:21:42.808Z,5.73
2019-02-19T11:26:48.818Z,5.82
2019-02-19T11:31:54.839Z,6.28
2019-02-19T11:37:00.896Z,7.28
2019-02-19T11:42:07.011Z,14.01
2019-02-19T11:47:13.041Z,5.97
2019-02-19T11:52:19.043Z,11.59
2019-02-19T11:57:25.041Z,6.38
2019-02-19T12:02:32.990Z,6.60
2019-02-19T12:07:36.599Z,6.76
2019-02-19T12:12:42.571Z,6.49
2019-02-19T12:17:48.566Z,4.56
2019-02-19T12:22:54.538Z,8.43
2019-02-19T12:28:00.532Z,8.70
2019-02-19T12:33:06.548Z,4.44
2019-02-19T12:38:12.543Z,6.07
2019-02-19T12:43:18.555Z,8.11
2019-02-19T12:48:24.644Z,4.80
2019-02-19T12:53:30.630Z,4.32
2019-02-19T12:58:36.634Z,4.03
2019-02-19T13:03:42.757Z,5.16
2019-02-19T13:08:49.015Z,4.93
2019-02-19T13:13:55.159Z,5.07
2019-02-19T13:19:03.574Z,5.09
2019-02-19T13:24:06.741Z,4.36
2019-02-19T13:29:12.789Z,3.87
2019-02-19T13:34:18.818Z,3.24
2019-02-19T13:39:24.861Z,4.31
2019-02-19T13:44:30.872Z,5.31
2019-02-19T13:49:36.860Z,4.58
2019-02-19T13:54:42.852Z,6.54
2019-02-19T13:59:49.270Z,6.69
2019-02-19T14:04:55.395Z,4.85
2019-02-19T14:10:01.477Z,7.93
2019-02-19T14:15:08.168Z,8.29
2019-02-19T14:20:14.204Z,8.86
2019-02-19T14:25:20.278Z,11.36
2019-02-19T14:30:26.408Z,3.55
2019-02-19T14:35:32.618Z,4.16
2019-02-19T14:40:38.663Z,4.01
2019-02-19T14:45:44.756Z,4.64
2019-02-19T14:50:50.785Z,4.91
2019-02-19T14:55:56.824Z,10.50
2019-02-19T15:01:03.087Z,4.87
2019-02-19T15:06:09.151Z,4.77
2019-02-19T15:11:15.200Z,5.52
2019-02-19T15:16:22.720Z,4.96
2019-02-19T15:21:26.782Z,5.83
2019-02-19T15:26:32.874Z,3.33
2019-02-19T15:31:38.834Z,6.95
2019-02-19T15:36:44.876Z,4.81
2019-02-19T15:41:51.566Z,4.36
2019-02-19T15:46:57.592Z,3.38
2019-02-19T15:52:03.645Z,7.58
2019-02-19T15:57:09.617Z,4.70
2019-02-19T16:02:15.613Z,3.29
2019-02-19T16:07:21.614Z,9.34
2019-02-19T16:12:27.595Z,3.58
2019-02-19T16:17:33.605Z,5.54
2019-02-19T16:22:39.780Z,6.28
2019-02-19T16:27:45.881Z,5.59
2019-02-19T16:32:51.934Z,10.00
2019-02-19T16:37:57.972Z,4.58
2019-02-19T16:43:03.977Z,4.77
2019-02-19T16:48:10.047Z,6.63
2019-02-19T16:53:16.058Z,7.00
2019-02-19T16:58:22.074Z,12.45
2019-02-19T17:03:28.215Z,5.96
2019-02-19T17:08:34.351Z,5.73
2019-02-19T17:13:40.436Z,4.79
2019-02-19T17:18:46.534Z,6.05
2019-02-19T17:23:52.532Z,10.27
2019-02-19T17:28:58.606Z,7.24
2019-02-19T17:34:04.847Z,7.85
2019-02-19T17:39:10.886Z,11.22
2019-02-19T17:44:17.222Z,7.56
2019-02-19T17:49:23.323Z,9.97
2019-02-19T17:54:29.881Z,10.85
2019-02-19T17:59:35.896Z,19.16
2019-02-19T18:04:42.001Z,11.18
2019-02-19T18:09:48.016Z,11.16
2019-02-19T18:14:54.090Z,10.07
2019-02-19T18:20:00.300Z,11.74
2019-02-19T18:25:06.345Z,12.08
2019-02-19T18:30:12.437Z,10.73
2019-02-19T18:35:18.473Z,11.95
2019-02-19T18:40:24.516Z,11.61
2019-02-19T18:45:30.560Z,9.84
2019-02-19T18:50:36.570Z,9.29
2019-02-19T18:55:42.702Z,9.75
2019-02-19T19:00:48.728Z,8.50
2019-02-19T19:05:54.738Z,9.98
2019-02-19T19:11:00.780Z,7.61
2019-02-19T19:16:06.811Z,16.23
2019-02-19T19:21:12.880Z,9.91
2019-02-19T19:26:19.006Z,8.73
2019-02-19T19:31:33.145Z,14.74
2019-02-19T19:36:30.613Z,15.76
2019-02-19T19:41:36.650Z,7.93
2019-02-19T19:46:42.725Z,6.98
2019-02-19T19:51:49.002Z,7.24
2019-02-19T19:56:55.147Z,8.62
2019-02-19T20:02:01.206Z,6.33
2019-02-19T20:07:07.228Z,13.05
2019-02-19T20:12:13.248Z,7.20
2019-02-19T20:17:19.244Z,14.48
2019-02-19T20:22:25.357Z,7.12
2019-02-19T20:27:45.516Z,7.23
2019-02-19T20:32:51.599Z,7.43
2019-02-19T20:37:57.658Z,7.40
2019-02-19T20:43:03.766Z,14.15
2019-02-19T20:48:09.800Z,7.62
2019-02-19T20:53:15.789Z,9.19
2019-02-19T20:58:21.872Z,15.44
2019-02-19T21:03:27.944Z,8.33
2019-02-19T21:08:33.972Z,16.19
2019-02-19T21:13:40.130Z,8.82
2019-02-19T21:18:46.281Z,7.52
2019-02-19T21:23:52.393Z,6.91
2019-02-19T21:28:58.409Z,8.14
2019-02-19T21:34:04.487Z,13.58
2019-02-19T21:39:10.493Z,5.60
2019-02-19T21:44:16.552Z,6.70
2019-02-19T21:49:22.587Z,6.08
2019-02-19T21:54:28.619Z,11.15
2019-02-19T21:59:34.697Z,4.96
2019-02-19T22:04:40.825Z,6.70
2019-02-19T22:09:46.851Z,5.44
2019-02-19T22:14:52.893Z,6.44
2019-02-19T22:20:03.194Z,5.40
2019-02-19T22:25:04.658Z,5.02
2019-02-19T22:30:10.705Z,5.06
2019-02-19T22:35:16.717Z,5.39
2019-02-19T22:40:22.753Z,5.93
2019-02-19T22:45:28.743Z,5.70
2019-02-19T22:50:34.879Z,5.80
2019-02-19T22:55:40.915Z,9.68
2019-02-19T23:00:46.946Z,4.90
2019-02-19T23:05:52.966Z,7.30
2019-02-19T23:10:59.031Z,5.18
2019-02-19T23:16:05.034Z,5.71
2019-02-19T23:21:11.023Z,13.68
2019-02-19T23:26:17.009Z,5.14
2019-02-19T23:31:23.024Z,4.76
2019-02-19T23:36:29.074Z,5.12
2019-02-19T23:41:35.359Z,5.96
2019-02-19T23:51:41.905Z,4.54
2019-02-19T23:56:47.887Z,5.15
